Time;durP1;ratioP1;P1;durP2;ratioP2;P2;SDS_P1;SDS_P2;PMS_P1;PMS_P2;Temp;Humidity;BMP_temperature;BMP_pressure;BME280_temperature;BME280_humidity;BME280_pressure;Samples;Min_cycle;Max_cycle;Signal;HPM_P1;HPM_P2
2023/07/08 00:02:25;;;;;;;5.13;2.38;;;;;;;15.69;100.00;98586.56;5138450;27;20074;-57
2023/07/08 00:04:52;;;;;;;5.13;2.65;;;;;;;15.74;100.00;98589.66;5140437;28;20373;-59
2023/07/08 00:07:20;;;;;;;4.13;2.47;;;;;;;15.67;100.00;98584.22;5140192;28;20324;-58
2023/07/08 00:09:46;;;;;;;4.43;2.20;;;;;;;15.43;100.00;98552.13;5140710;27;20051;-57
2023/07/08 00:12:12;;;;;;;3.35;2.70;;;;;;;15.41;100.00;98551.75;5140130;28;20301;-55
2023/07/08 00:14:38;;;;;;;2.70;2.25;;;;;;;15.44;100.00;98550.94;5140567;28;20054;-54
2023/07/08 00:17:10;;;;;;;5.25;3.22;;;;;;;15.47;100.00;98547.34;5140172;28;20066;-58
2023/07/08 00:19:36;;;;;;;6.88;2.50;;;;;;;15.49;100.00;98544.94;5140315;28;20151;-56
2023/07/08 00:22:10;;;;;;;4.70;2.10;;;;;;;15.18;100.00;98531.09;5140249;28;20047;-53
2023/07/08 00:24:36;;;;;;;3.75;2.13;;;;;;;15.39;100.00;98529.28;5140131;28;20474;-54
2023/07/08 00:27:02;;;;;;;2.70;2.35;;;;;;;15.27;100.00;98531.38;5140101;28;20138;-53
2023/07/08 00:29:28;;;;;;;5.32;2.63;;;;;;;15.27;100.00;98520.34;5140109;28;20047;-55
2023/07/08 00:31:54;;;;;;;4.07;2.35;;;;;;;15.25;100.00;98521.94;5140230;28;20134;-51
2023/07/08 00:34:19;;;;;;;3.80;2.53;;;;;;;15.26;100.00;98517.97;5139838;28;20294;-53
2023/07/08 00:36:45;;;;;;;3.92;2.35;;;;;;;15.19;100.00;98499.50;5140109;28;20075;-52
2023/07/08 00:39:14;;;;;;;3.35;2.30;;;;;;;15.01;100.00;98504.47;5139864;27;20089;-57
2023/07/08 00:41:42;;;;;;;3.03;2.40;;;;;;;15.10;100.00;98490.19;5140259;28;20328;-53
2023/07/08 00:44:11;;;;;;;2.55;2.35;;;;;;;15.03;100.00;98489.06;5139673;28;20138;-60
2023/07/08 00:46:55;;;;;;;3.70;2.63;;;;;;;15.07;100.00;98486.25;5139894;28;20050;-55
2023/07/08 00:49:29;;;;;;;3.78;2.58;;;;;;;15.06;100.00;98490.19;5139951;28;20043;-57
2023/07/08 00:51:54;;;;;;;5.28;2.58;;;;;;;15.02;100.00;98490.22;5139774;28;20051;-54
2023/07/08 00:54:21;;;;;;;4.05;2.33;;;;;;;14.96;100.00;98488.34;5139890;28;20151;-51
2023/07/08 00:56:52;;;;;;;13.02;2.80;;;;;;;14.89;100.00;98491.94;5139550;28;20130;-58
2023/07/08 00:59:22;;;;;;;7.90;2.30;;;;;;;14.95;100.00;98492.28;5139799;28;20050;-55
2023/07/08 01:01:49;;;;;;;9.80;2.10;;;;;;;14.63;100.00;98503.63;5139461;28;20573;-59
2023/07/08 01:04:20;;;;;;;6.75;2.10;;;;;;;14.77;100.00;98506.28;5139789;28;20047;-59
2023/07/08 01:06:57;;;;;;;4.63;2.30;;;;;;;14.74;100.00;98501.56;5139279;28;20336;-55
2023/07/08 01:09:27;;;;;;;5.28;2.50;;;;;;;14.79;100.00;98503.88;5139528;28;20084;-56
2023/07/08 01:11:54;;;;;;;6.97;2.42;;;;;;;14.74;100.00;98507.88;5139589;28;20141;-58
2023/07/08 01:14:22;;;;;;;3.25;2.88;;;;;;;14.67;100.00;98512.69;5139007;27;20054;-59
2023/07/08 01:16:50;;;;;;;2.85;2.17;;;;;;;14.78;100.00;98508.63;5139382;27;20468;-59
2023/07/08 01:19:21;;;;;;;5.43;2.70;;;;;;;14.71;100.00;98514.22;5139434;27;20051;-55
2023/07/08 01:21:58;;;;;;;5.45;2.50;;;;;;;14.76;100.00;98510.22;5139522;27;20062;-58
2023/07/08 01:24:25;;;;;;;4.30;2.45;;;;;;;14.69;100.00;98513.03;5139096;28;20054;-56
2023/07/08 01:26:51;;;;;;;3.90;2.10;;;;;;;14.78;100.00;98518.88;5139470;28;20401;-59
2023/07/08 01:29:18;;;;;;;7.10;2.80;;;;;;;14.77;100.00;98514.56;5138936;28;20435;-56
2023/07/08 01:31:48;;;;;;;4.55;2.50;;;;;;;14.73;100.00;98520.13;5139123;28;20180;-57
2023/07/08 01:34:15;;;;;;;6.47;2.80;;;;;;;14.71;100.00;98524.47;5138966;27;20415;-52
2023/07/08 01:36:46;;;;;;;5.10;2.55;;;;;;;14.77;100.00;98537.41;5139038;28;20061;-56
2023/07/08 01:39:15;;;;;;;3.67;2.42;;;;;;;14.71;100.00;98535.50;5139156;27;20047;-59
2023/07/08 01:41:40;;;;;;;5.15;2.25;;;;;;;14.65;100.00;98534.38;5138867;28;20103;-51
2023/07/08 01:44:24;;;;;;;6.57;2.67;;;;;;;14.70;100.00;98539.47;5139059;28;20063;-52
2023/07/08 01:46:54;;;;;;;4.88;2.35;;;;;;;14.63;100.00;98537.53;5138670;28;20090;-52
2023/07/08 01:49:20;;;;;;;5.78;2.67;;;;;;;14.69;100.00;98551.66;5139154;27;20099;-60
2023/07/08 01:51:48;;;;;;;6.43;2.47;;;;;;;14.70;100.00;98558.78;5138552;28;20062;-56
2023/07/08 01:54:15;;;;;;;5.30;2.45;;;;;;;14.66;100.00;98558.00;5138808;28;20332;-54
2023/07/08 01:56:41;;;;;;;8.27;2.35;;;;;;;14.62;100.00;98554.50;5138810;27;20054;-55
2023/07/08 01:59:07;;;;;;;3.42;2.45;;;;;;;14.56;100.00;98581.72;5138489;27;20542;-51
2023/07/08 02:01:32;;;;;;;4.28;2.00;;;;;;;14.56;100.00;98570.69;5138805;27;20089;-51
2023/07/08 02:03:58;;;;;;;4.32;2.17;;;;;;;14.55;100.00;98585.66;5138437;28;20141;-52
2023/07/08 02:06:24;;;;;;;4.13;2.03;;;;;;;14.57;100.00;98580.53;5138509;28;20320;-55
2023/07/08 02:08:51;;;;;;;5.63;2.30;;;;;;;14.54;100.00;98582.13;5138391;28;20123;-60
2023/07/08 02:11:17;;;;;;;8.48;2.10;;;;;;;14.55;100.00;98578.19;5138478;27;20066;-52
2023/07/08 02:13:43;;;;;;;4.20;2.05;;;;;;;14.49;100.00;98585.28;5138291;28;20057;-51
2023/07/08 02:16:09;;;;;;;5.80;2.42;;;;;;;14.52;100.00;98594.75;5138609;28;20376;-55
2023/07/08 02:18:35;;;;;;;4.82;2.40;;;;;;;14.54;100.00;98597.91;5138238;28;20047;-55
2023/07/08 02:21:01;;;;;;;5.82;2.08;;;;;;;14.60;100.00;98588.00;5138552;27;20138;-57
2023/07/08 02:23:27;;;;;;;7.47;2.38;;;;;;;14.53;100.00;98591.59;5138275;27;20403;-60
2023/07/08 02:25:53;;;;;;;2.65;2.45;;;;;;;14.57;100.00;98603.38;5137328;27;20171;-60
2023/07/08 02:28:20;;;;;;;2.90;2.17;;;;;;;14.62;100.00;98604.16;5138341;27;20043;-59
2023/07/08 02:30:46;;;;;;;9.13;2.97;;;;;;;15.07;100.00;98580.13;5138126;28;20073;-56
2023/07/08 02:33:12;;;;;;;3.38;1.90;;;;;;;15.54;100.00;98539.75;5138367;28;20400;-54
2023/07/08 02:35:38;;;;;;;5.97;2.42;;;;;;;15.98;100.00;98518.66;5138080;28;20115;-58
2023/07/08 02:38:04;;;;;;;6.90;2.15;;;;;;;16.25;100.00;98537.22;5138235;28;20047;-60
2023/07/08 02:40:30;;;;;;;5.63;2.47;;;;;;;16.56;100.00;98570.34;5137774;27;20051;-56
2023/07/08 02:42:56;;;;;;;4.35;2.10;;;;;;;16.87;100.00;98627.22;5138172;27;20196;-58
2023/07/08 02:45:23;;;;;;;5.50;1.95;;;;;;;17.06;100.00;98672.81;5137836;27;20191;-56
2023/07/08 02:47:49;;;;;;;5.20;2.40;;;;;;;17.34;100.00;98712.31;5138361;28;20057;-53
2023/07/08 02:50:16;;;;;;;3.53;1.90;;;;;;;17.60;100.00;98755.03;5137671;27;20070;-52
2023/07/08 02:52:42;;;;;;;10.07;2.15;;;;;;;17.86;100.00;98798.56;5137871;28;20055;-60
2023/07/08 02:55:09;;;;;;;6.28;2.50;;;;;;;17.96;100.00;98830.09;5137900;28;20138;-58
2023/07/08 02:57:35;;;;;;;3.42;2.25;;;;;;;18.13;100.00;98857.91;5137600;28;20053;-56
2023/07/08 03:00:01;;;;;;;4.40;2.13;;;;;;;18.44;100.00;98908.53;5137888;27;20043;-56
2023/07/08 03:02:27;;;;;;;3.80;2.30;;;;;;;18.38;100.00;98937.97;5137663;28;20141;-60
2023/07/08 03:04:54;;;;;;;4.47;1.77;;;;;;;18.84;100.00;98964.13;5137806;28;20051;-59
2023/07/08 03:07:20;;;;;;;4.82;1.90;;;;;;;18.96;100.00;98992.06;5137419;28;20051;-59
2023/07/08 03:09:46;;;;;;;4.90;2.20;;;;;;;19.01;100.00;98991.56;5137751;28;20058;-58
2023/07/08 03:12:12;;;;;;;3.25;2.00;;;;;;;19.41;100.00;99036.06;5137346;28;20078;-59
2023/07/08 03:14:38;;;;;;;5.80;2.45;;;;;;;19.19;100.00;99046.00;5137712;28;20165;-51
2023/07/08 03:17:04;;;;;;;7.43;2.20;;;;;;;19.21;100.00;99051.94;5137366;28;20043;-57
2023/07/08 03:19:32;;;;;;;6.43;2.10;;;;;;;19.65;100.00;99061.03;5137734;28;20127;-58
2023/07/08 03:21:58;;;;;;;3.92;2.13;;;;;;;20.13;100.00;99090.22;5137469;28;20074;-54
2023/07/08 03:24:24;;;;;;;3.33;2.05;;;;;;;19.92;100.00;99103.38;5137091;28;20470;-53
2023/07/08 03:26:54;;;;;;;3.10;2.20;;;;;;;20.24;100.00;99120.59;5137484;27;20047;-58
2023/07/08 03:29:20;;;;;;;3.60;1.95;;;;;;;20.37;100.00;99138.19;5137332;28;20126;-57
2023/07/08 03:31:46;;;;;;;3.50;2.20;;;;;;;20.54;100.00;99150.97;5137518;28;20047;-53
2023/07/08 03:34:14;;;;;;;3.78;2.03;;;;;;;20.79;100.00;99164.31;5137237;28;20057;-56
2023/07/08 03:36:48;;;;;;;3.30;1.80;;;;;;;20.95;100.00;99174.66;5139480;27;20054;-59
2023/07/08 03:39:14;;;;;;;3.30;2.08;;;;;;;20.61;100.00;99170.28;5140863;28;20411;-51
2023/07/08 03:41:41;;;;;;;3.83;2.10;;;;;;;20.98;100.00;99187.75;5141081;28;20408;-52
2023/07/08 03:44:07;;;;;;;2.58;1.80;;;;;;;21.47;100.00;99200.91;5140617;28;20061;-58
2023/07/08 03:46:33;;;;;;;2.90;1.90;;;;;;;21.50;100.00;99211.19;5141046;28;20047;-60
2023/07/08 03:48:59;;;;;;;4.25;2.05;;;;;;;21.90;100.00;99217.28;5140866;28;20062;-56
2023/07/08 03:51:28;;;;;;;5.80;1.80;;;;;;;21.91;100.00;99224.44;5140816;28;20047;-54
2023/07/08 03:53:55;;;;;;;2.78;1.65;;;;;;;22.22;100.00;99237.97;5140861;27;20047;-55
2023/07/08 03:56:21;;;;;;;2.15;1.80;;;;;;;22.18;100.00;99229.69;5140433;28;20108;-57
2023/07/08 03:58:47;;;;;;;6.85;2.00;;;;;;;22.37;100.00;99243.94;5140843;28;20086;-54
2023/07/08 04:01:15;;;;;;;4.72;2.50;;;;;;;22.52;100.00;99251.44;5140342;28;20086;-53
2023/07/08 04:03:41;;;;;;;3.15;2.17;;;;;;;22.41;100.00;99250.97;5140634;28;20111;-55
2023/07/08 04:06:07;;;;;;;3.53;1.73;;;;;;;22.49;100.00;99255.16;5140334;28;20110;-59
2023/07/08 04:08:33;;;;;;;6.28;1.83;;;;;;;22.85;100.00;99258.88;5140762;27;20085;-60
2023/07/08 04:11:00;;;;;;;5.95;1.95;;;;;;;23.04;100.00;99269.09;5140375;28;20055;-60
2023/07/08 04:13:26;;;;;;;3.53;2.20;;;;;;;23.20;100.00;99262.59;5140728;28;20051;-60
2023/07/08 04:15:56;;;;;;;5.68;1.60;;;;;;;23.28;100.00;99285.53;5140085;27;20047;-60
2023/07/08 04:18:22;;;;;;;3.25;1.98;;;;;;;23.39;100.00;99281.16;5140099;28;20137;-55
2023/07/08 04:20:52;;;;;;;2.08;1.63;;;;;;;22.96;100.00;99284.53;5140372;28;20168;-56
2023/07/08 04:23:18;;;;;;;2.33;1.77;;;;;;;23.43;100.00;99284.63;5139985;28;20404;-57
2023/07/08 04:25:43;;;;;;;4.25;1.70;;;;;;;23.42;100.00;99287.84;5140396;28;20054;-58
2023/07/08 04:28:10;;;;;;;3.55;1.73;;;;;;;23.87;97.11;99293.19;5140109;28;20477;-60
2023/07/08 04:30:40;;;;;;;4.97;1.73;;;;;;;23.93;96.76;99296.97;5140351;28;20153;-59
2023/07/08 04:33:07;;;;;;;5.35;1.52;;;;;;;23.88;96.26;99297.53;5140006;28;20055;-57
2023/07/08 04:35:33;;;;;;;3.38;1.77;;;;;;;24.49;93.37;99303.84;5140239;27;20401;-58
2023/07/08 04:38:00;;;;;;;4.05;1.92;;;;;;;24.98;88.63;99308.00;5139855;28;20111;-60
2023/07/08 04:40:26;;;;;;;2.70;1.90;;;;;;;24.97;87.36;99312.81;5140242;28;20119;-55
2023/07/08 04:42:52;;;;;;;6.20;2.40;;;;;;;24.72;88.32;99310.97;5139690;28;20047;-56
2023/07/08 04:45:20;;;;;;;2.83;2.00;;;;;;;25.18;86.19;99310.47;5139619;28;20402;-57
2023/07/08 04:47:51;;;;;;;4.93;2.10;;;;;;;25.30;85.84;99312.38;5139166;27;20062;-54
2023/07/08 04:50:17;;;;;;;3.58;2.00;;;;;;;25.69;82.75;99307.19;5139640;28;20436;-58
2023/07/08 04:52:45;;;;;;;3.50;2.10;;;;;;;25.31;83.20;99311.13;5139889;28;20061;-57
2023/07/08 04:55:13;;;;;;;4.90;1.80;;;;;;;25.57;81.62;99308.88;5139643;28;20055;-57
2023/07/08 04:57:39;;;;;;;4.05;1.63;;;;;;;25.58;80.62;99305.59;5139907;28;20046;-52
2023/07/08 05:00:08;;;;;;;5.38;1.95;;;;;;;26.09;79.24;99307.13;5139410;27;20047;-54
2023/07/08 05:02:35;;;;;;;2.67;1.90;;;;;;;26.25;78.00;99303.97;5139880;27;20043;-51
2023/07/08 05:05:01;;;;;;;2.78;1.73;;;;;;;26.45;76.47;99306.31;5139301;27;20142;-51
2023/07/08 05:07:27;;;;;;;3.22;1.73;;;;;;;26.28;77.27;99314.28;5139788;27;20135;-54
2023/07/08 05:09:53;;;;;;;3.67;2.00;;;;;;;26.24;75.42;99313.66;5139318;28;20443;-55
2023/07/08 05:12:19;;;;;;;4.70;1.70;;;;;;;25.18;77.33;99307.66;5139337;28;20138;-55
2023/07/08 05:14:45;;;;;;;5.57;1.80;;;;;;;26.08;76.48;99311.16;5139490;28;20142;-50
2023/07/08 05:17:12;;;;;;;2.47;1.60;;;;;;;26.45;75.03;99314.75;5139152;28;20325;-52
2023/07/08 05:19:41;;;;;;;3.95;1.52;;;;;;;26.71;73.76;99309.56;5139519;28;20047;-58
2023/07/08 05:22:07;;;;;;;4.03;1.48;;;;;;;27.10;72.77;99320.28;5139266;28;20070;-56
2023/07/08 05:24:33;;;;;;;3.58;1.45;;;;;;;27.25;70.45;99314.75;5139151;27;20055;-57
2023/07/08 05:26:59;;;;;;;1.60;1.40;;;;;;;27.83;69.39;99319.19;5139152;28;20179;-59
2023/07/08 05:29:25;;;;;;;3.70;1.63;;;;;;;27.61;67.94;99325.84;5139366;28;20423;-51
2023/07/08 05:31:51;;;;;;;5.60;1.85;;;;;;;27.07;69.93;99324.03;5139033;28;20046;-51
2023/07/08 05:34:17;;;;;;;3.50;1.60;;;;;;;27.19;70.17;99311.81;5139021;28;20050;-51
2023/07/08 05:36:44;;;;;;;3.53;1.55;;;;;;;27.36;69.50;99315.81;5138846;28;20079;-51
2023/07/08 05:39:10;;;;;;;3.25;1.40;;;;;;;27.40;68.99;99319.22;5139265;28;20329;-52
2023/07/08 05:41:36;;;;;;;2.00;1.27;;;;;;;27.82;67.12;99314.78;5139086;28;20074;-57
2023/07/08 05:44:02;;;;;;;2.08;1.73;;;;;;;27.82;66.99;99314.78;5138883;28;20050;-50
2023/07/08 05:46:28;;;;;;;3.03;1.45;;;;;;;27.96;65.82;99307.63;5138938;28;20207;-55
2023/07/08 05:48:54;;;;;;;2.58;1.40;;;;;;;27.65;68.12;99309.53;5138614;28;20050;-56
2023/07/08 05:51:20;;;;;;;1.85;1.50;;;;;;;27.43;68.49;99301.38;5139020;28;20078;-58
2023/07/08 05:53:47;;;;;;;1.90;1.55;;;;;;;27.98;65.58;99307.94;5138800;28;20069;-52
2023/07/08 05:56:13;;;;;;;2.10;1.38;;;;;;;28.04;65.30;99306.03;5138988;28;20043;-50
2023/07/08 05:58:39;;;;;;;2.33;1.27;;;;;;;28.17;66.16;99297.31;5138250;27;20047;-51
2023/07/08 06:01:05;;;;;;;3.85;1.25;;;;;;;28.86;64.08;99301.69;5137976;27;20047;-56
2023/07/08 06:03:31;;;;;;;2.55;1.45;;;;;;;28.92;65.10;99299.72;5138485;28;20051;-57
2023/07/08 06:05:57;;;;;;;3.22;1.38;;;;;;;29.11;62.33;99297.50;5138810;28;20062;-56
2023/07/08 06:08:23;;;;;;;1.45;1.35;;;;;;;29.27;62.58;99304.69;5138345;28;20047;-52
2023/07/08 06:10:50;;;;;;;4.68;1.30;;;;;;;29.27;60.70;99301.84;5138558;28;20047;-51
2023/07/08 06:13:16;;;;;;;3.13;1.30;;;;;;;29.22;60.38;99300.47;5138602;28;20149;-52
2023/07/08 06:15:42;;;;;;;5.22;1.30;;;;;;;29.08;59.99;99287.97;5138504;28;20081;-50
2023/07/08 06:18:08;;;;;;;1.48;1.38;;;;;;;29.09;60.35;99300.06;5138547;28;20404;-51
2023/07/08 06:20:34;;;;;;;4.75;1.20;;;;;;;28.02;63.04;99288.81;5138189;28;20420;-56
2023/07/08 06:23:01;;;;;;;1.73;1.10;;;;;;;28.21;63.43;99283.81;5138378;28;20051;-54
2023/07/08 06:25:27;;;;;;;1.90;1.30;;;;;;;28.65;61.74;99288.75;5138034;28;20140;-52
2023/07/08 06:27:54;;;;;;;3.15;1.10;;;;;;;29.23;60.72;99287.16;5138400;28;20057;-58
2023/07/08 06:30:20;;;;;;;2.38;0.93;;;;;;;29.52;59.40;99284.25;5138025;28;20540;-59
2023/07/08 06:32:45;;;;;;;3.40;1.10;;;;;;;28.79;59.41;99279.50;5138649;28;20133;-57
2023/07/08 06:35:11;;;;;;;3.28;1.15;;;;;;;29.10;58.63;99283.88;5137913;27;20055;-57
2023/07/08 06:37:37;;;;;;;3.65;1.00;;;;;;;28.98;58.47;99288.53;5138312;28;20405;-56
2023/07/08 06:40:04;;;;;;;1.70;1.10;;;;;;;28.45;60.18;99275.31;5137818;28;20054;-51
2023/07/08 06:42:30;;;;;;;3.90;1.10;;;;;;;28.31;60.34;99277.59;5137824;28;20051;-54
2023/07/08 06:44:57;;;;;;;1.88;1.17;;;;;;;28.09;62.30;99277.97;5138011;28;20146;-56
2023/07/08 06:47:23;;;;;;;2.05;1.10;;;;;;;28.22;61.56;99274.09;5137901;28;20051;-54
2023/07/08 06:49:49;;;;;;;5.00;1.10;;;;;;;28.78;59.58;99266.66;5138119;28;20085;-56
2023/07/08 06:52:15;;;;;;;2.65;0.90;;;;;;;29.35;58.61;99266.28;5137792;27;20047;-57
2023/07/08 06:54:41;;;;;;;4.47;1.10;;;;;;;29.63;56.96;99274.41;5137907;27;20065;-52
2023/07/08 06:57:07;;;;;;;2.33;1.30;;;;;;;29.25;57.55;99267.69;5137673;28;20051;-54
2023/07/08 06:59:34;;;;;;;2.85;1.10;;;;;;;29.38;58.04;99270.19;5138058;28;20053;-58
2023/07/08 07:02:00;;;;;;;2.08;1.20;;;;;;;29.19;57.44;99261.16;5137615;28;20051;-53
2023/07/08 07:04:26;;;;;;;2.55;1.50;;;;;;;29.16;58.25;99254.47;5137891;28;20061;-57
2023/07/08 07:06:52;;;;;;;4.47;1.13;;;;;;;28.55;60.40;99257.03;5137376;28;20138;-55
2023/07/08 07:09:18;;;;;;;1.83;1.27;;;;;;;28.82;59.70;99253.94;5137671;27;20377;-52
2023/07/08 07:11:44;;;;;;;3.15;1.30;;;;;;;28.93;58.67;99250.50;5137157;27;20447;-51
2023/07/08 07:14:10;;;;;;;2.20;1.20;;;;;;;29.38;58.21;99256.06;5137548;28;20145;-50
2023/07/08 07:16:36;;;;;;;1.45;1.10;;;;;;;28.37;60.91;99246.69;5137673;28;20085;-51
2023/07/08 07:19:02;;;;;;;3.05;1.17;;;;;;;28.82;57.47;99253.13;5137491;28;20507;-51
2023/07/08 07:21:48;;;;;;;2.70;1.25;;;;;;;29.36;56.82;99267.06;5137665;27;20057;-55
2023/07/08 07:24:14;;;;;;;2.75;1.38;;;;;;;29.66;56.02;99253.66;5137208;28;20153;-51
2023/07/08 07:26:40;;;;;;;4.13;1.60;;;;;;;29.64;55.14;99253.38;5137680;28;20136;-55
2023/07/08 07:29:06;;;;;;;5.95;1.58;;;;;;;29.53;53.93;99240.63;5137215;28;20079;-59
2023/07/08 07:31:32;;;;;;;3.40;1.35;;;;;;;28.64;56.93;99237.19;5137657;28;20464;-51
2023/07/08 07:33:59;;;;;;;2.83;1.30;;;;;;;29.45;55.85;99253.59;5137394;28;20108;-58
2023/07/08 07:36:26;;;;;;;4.03;1.65;;;;;;;30.39;54.48;99249.63;5137246;28;20082;-56
2023/07/08 07:38:52;;;;;;;2.47;1.25;;;;;;;30.33;53.46;99245.19;5137359;28;20054;-52
2023/07/08 07:41:18;;;;;;;2.53;1.30;;;;;;;30.38;53.81;99235.97;5137176;28;20075;-52
2023/07/08 07:43:44;;;;;;;3.67;1.13;;;;;;;30.46;53.17;99239.91;5137263;28;20146;-57
2023/07/08 07:46:10;;;;;;;3.45;1.40;;;;;;;30.81;53.04;99239.72;5137073;28;20055;-58
2023/07/08 07:48:36;;;;;;;1.63;1.10;;;;;;;31.04;51.74;99239.88;5137312;27;20074;-54
2023/07/08 07:51:02;;;;;;;5.90;1.48;;;;;;;30.95;51.12;99238.00;5137003;27;20078;-58
2023/07/08 07:53:29;;;;;;;3.60;1.38;;;;;;;30.52;51.54;99237.91;5137286;28;20200;-52
2023/07/08 07:55:58;;;;;;;3.80;1.30;;;;;;;30.12;52.68;99245.19;5136810;28;20527;-54
2023/07/08 07:58:24;;;;;;;2.90;1.20;;;;;;;30.60;52.34;99226.91;5137309;28;20047;-51
2023/07/08 08:00:50;;;;;;;2.53;1.23;;;;;;;30.92;52.01;99220.00;5136762;28;20505;-53
2023/07/08 08:03:16;;;;;;;7.30;1.60;;;;;;;30.89;51.98;99226.66;5136685;28;20047;-53
2023/07/08 08:05:42;;;;;;;1.83;1.17;;;;;;;30.78;51.83;99220.91;5136849;28;20047;-53
2023/07/08 08:08:09;;;;;;;4.97;1.80;;;;;;;30.26;52.40;99212.47;5136646;28;20138;-54
2023/07/08 08:10:36;;;;;;;2.95;1.60;;;;;;;30.43;52.93;99221.88;5136752;28;20419;-54
2023/07/08 08:13:02;;;;;;;3.00;1.20;;;;;;;30.59;52.92;99212.00;5136836;28;20134;-54
2023/07/08 08:15:29;;;;;;;3.22;1.55;;;;;;;31.01;52.60;99210.53;5136985;28;20061;-57
2023/07/08 08:17:55;;;;;;;3.65;1.50;;;;;;;30.94;53.03;99217.44;5136671;27;20168;-51
2023/07/08 08:20:23;;;;;;;2.97;1.50;;;;;;;31.00;51.74;99220.31;5136964;28;20145;-53
2023/07/08 08:22:50;;;;;;;5.70;1.67;;;;;;;31.57;50.81;99216.53;5137355;27;20058;-57
2023/07/08 08:25:17;;;;;;;1.73;1.33;;;;;;;30.41;51.84;99215.94;5140476;28;20058;-59
2023/07/08 08:27:44;;;;;;;2.53;1.50;;;;;;;31.11;51.26;99222.44;5140045;28;20386;-55
2023/07/08 08:30:11;;;;;;;3.55;1.60;;;;;;;31.63;50.48;99219.41;5140408;28;20331;-54
2023/07/08 08:32:37;;;;;;;3.17;1.65;;;;;;;31.28;50.52;99216.88;5140200;28;20465;-57
2023/07/08 08:35:04;;;;;;;2.67;1.60;;;;;;;29.91;51.65;99216.19;5139861;28;20077;-57
2023/07/08 08:37:30;;;;;;;2.45;1.30;;;;;;;30.38;52.16;99221.81;5139880;28;20432;-57
2023/07/08 08:39:56;;;;;;;1.88;1.40;;;;;;;30.98;51.54;99220.03;5140029;28;20141;-51
2023/07/08 08:42:27;;;;;;;2.42;1.30;;;;;;;31.06;51.42;99226.78;5140132;27;20390;-51
2023/07/08 08:44:57;;;;;;;3.33;1.70;;;;;;;30.82;50.67;99221.44;5139631;27;20491;-53
2023/07/08 08:47:33;;;;;;;3.33;1.50;;;;;;;30.50;50.58;99226.31;5139980;28;20058;-56
2023/07/08 08:50:04;;;;;;;4.38;1.40;;;;;;;30.67;50.84;99224.41;5139592;28;20381;-52
2023/07/08 08:52:31;;;;;;;3.13;1.75;;;;;;;30.55;50.85;99216.31;5140090;27;20107;-54
2023/07/08 08:54:57;;;;;;;2.58;1.48;;;;;;;30.02;52.17;99210.66;5139493;28;20444;-58
2023/07/08 08:57:36;;;;;;;2.97;1.40;;;;;;;30.19;51.90;99208.03;5139445;28;20089;-57
2023/07/08 09:00:04;;;;;;;5.03;1.70;;;;;;;30.25;53.75;99197.53;5139773;28;20058;-52
2023/07/08 09:02:36;;;;;;;8.02;1.60;;;;;;;30.54;51.30;99211.94;5139516;27;20051;-54
2023/07/08 09:05:07;;;;;;;2.00;1.40;;;;;;;31.13;50.83;99214.22;5139699;28;20142;-58
2023/07/08 09:07:41;;;;;;;2.75;1.50;;;;;;;31.04;49.97;99211.56;5139417;28;20047;-57
2023/07/08 09:10:14;;;;;;;4.68;1.70;;;;;;;31.07;49.15;99221.91;5139662;28;20480;-58
2023/07/08 09:12:40;;;;;;;2.75;1.30;;;;;;;30.84;49.72;99215.31;5139183;28;20126;-51
2023/07/08 09:15:13;;;;;;;1.80;1.45;;;;;;;30.55;48.69;99216.31;5139668;27;20050;-55
2023/07/08 09:17:39;;;;;;;2.55;1.20;;;;;;;30.53;49.58;99211.19;5139447;27;20048;-50
2023/07/08 09:20:20;;;;;;;5.78;1.30;;;;;;;30.78;49.77;99212.41;5139384;28;20133;-51
2023/07/08 09:22:52;;;;;;;1.73;1.27;;;;;;;31.14;49.10;99210.88;5139444;28;20055;-56
2023/07/08 09:25:25;;;;;;;3.42;1.08;;;;;;;30.78;49.00;99209.59;5139000;28;20158;-54
2023/07/08 09:27:51;;;;;;;1.80;1.48;;;;;;;29.89;49.84;99213.09;5139526;28;20134;-54
2023/07/08 09:30:20;;;;;;;5.07;1.58;;;;;;;29.53;50.63;99209.56;5139042;28;20065;-56
2023/07/08 09:32:47;;;;;;;4.18;1.30;;;;;;;30.01;50.25;99208.31;5139466;27;20043;-57
2023/07/08 09:35:18;;;;;;;4.45;1.40;;;;;;;29.73;50.54;99205.19;5138661;27;20096;-57
2023/07/08 09:37:47;;;;;;;3.92;1.42;;;;;;;29.86;49.98;99196.34;5138698;27;20107;-56
2023/07/08 09:40:17;;;;;;;5.47;1.45;;;;;;;29.99;51.01;99200.34;5138901;27;20504;-52
2023/07/08 09:42:46;;;;;;;3.75;1.50;;;;;;;29.57;50.64;99203.69;5139038;28;20099;-56
2023/07/08 09:45:15;;;;;;;4.45;1.30;;;;;;;29.68;50.19;99197.41;5138984;28;20130;-56
2023/07/08 09:47:45;;;;;;;2.65;1.20;;;;;;;29.75;51.31;99199.81;5138898;28;20344;-52
2023/07/08 09:50:18;;;;;;;1.38;1.23;;;;;;;29.36;50.45;99204.94;5139036;28;20149;-51
2023/07/08 09:52:44;;;;;;;2.22;1.45;;;;;;;29.92;50.11;99189.47;5138741;28;20141;-53
2023/07/08 09:55:11;;;;;;;6.82;1.30;;;;;;;30.35;49.96;99195.31;5138988;28;20153;-54
2023/07/08 09:57:38;;;;;;;3.85;1.30;;;;;;;30.54;49.22;99186.50;5138526;28;20134;-54
2023/07/08 10:00:11;;;;;;;1.30;1.20;;;;;;;30.44;49.70;99186.66;5139080;27;20057;-52
2023/07/08 10:02:41;;;;;;;2.08;1.10;;;;;;;29.87;49.93;99193.03;5138788;28;20099;-51
2023/07/08 10:05:17;;;;;;;4.70;1.70;;;;;;;29.31;50.90;99184.59;5138526;28;20054;-57
2023/07/08 10:07:45;;;;;;;4.63;1.40;;;;;;;28.22;52.85;99197.97;5138503;27;20047;-51
2023/07/08 10:10:16;;;;;;;3.38;1.23;;;;;;;29.06;52.33;99197.38;5138474;28;20085;-53
2023/07/08 10:12:48;;;;;;;6.95;1.38;;;;;;;28.96;51.57;99189.50;5138524;27;20389;-56
2023/07/08 10:15:20;;;;;;;2.88;1.27;;;;;;;29.39;51.51;99181.38;5138315;28;20081;-50
2023/07/08 10:17:46;;;;;;;2.55;1.40;;;;;;;28.76;52.85;99174.06;5138667;28;20062;-50
2023/07/08 10:20:14;;;;;;;1.40;1.27;;;;;;;29.03;52.40;99181.41;5138165;28;20051;-50
2023/07/08 10:22:50;;;;;;;1.73;1.52;;;;;;;29.35;53.50;99181.56;5138596;28;20133;-52
2023/07/08 10:25:27;;;;;;;2.03;1.35;;;;;;;30.10;52.03;99176.31;5138350;28;20210;-51
2023/07/08 10:27:59;;;;;;;2.13;1.17;;;;;;;29.39;51.44;99187.00;5138238;28;20310;-52
2023/07/08 10:30:30;;;;;;;3.58;1.40;;;;;;;29.80;52.19;99181.38;5138405;28;20069;-56
2023/07/08 10:33:13;;;;;;;1.17;1.13;;;;;;;29.71;51.33;99173.81;5138049;28;20456;-55
2023/07/08 10:35:48;;;;;;;2.25;1.17;;;;;;;30.01;50.05;99191.38;5138392;27;20550;-50
2023/07/08 10:38:34;;;;;;;3.53;1.30;;;;;;;30.07;49.42;99180.13;5137926;28;20465;-56
2023/07/08 10:41:04;;;;;;;2.53;1.52;;;;;;;29.58;50.36;99176.22;5138088;28;20137;-50
2023/07/08 10:43:51;;;;;;;2.85;1.25;;;;;;;29.58;51.09;99174.16;5138157;28;20381;-53
2023/07/08 10:46:27;;;;;;;1.83;1.35;;;;;;;29.86;52.28;99168.09;5137012;27;20051;-53
2023/07/08 10:49:22;;;;;;;2.65;1.38;;;;;;;29.89;52.13;99173.53;5137662;27;20455;-51
2023/07/08 10:51:57;;;;;;;3.78;1.48;;;;;;;29.72;51.99;99181.03;5137623;28;20480;-56
2023/07/08 10:54:48;;;;;;;5.55;1.60;;;;;;;27.87;52.67;99170.47;5137628;28;20417;-51
2023/07/08 10:57:33;;;;;;;3.15;1.40;;;;;;;28.01;52.28;99174.56;5137898;28;20110;-50
2023/07/08 11:00:08;;;;;;;3.65;1.50;;;;;;;27.56;54.69;99162.41;5137616;28;20047;-58
2023/07/08 11:03:11;;;;;;;3.97;1.20;;;;;;;27.60;54.54;99169.41;5137864;28;20057;-57
2023/07/08 11:05:42;;;;;;;2.63;1.30;;;;;;;26.96;55.20;99173.41;5137671;28;20111;-57
2023/07/08 11:08:18;;;;;;;3.72;1.50;;;;;;;26.34;55.59;99168.31;5137598;28;20058;-50
2023/07/08 11:10:49;;;;;;;3.97;1.23;;;;;;;26.17;57.60;99159.44;5137704;28;20043;-57
2023/07/08 11:13:18;;;;;;;4.63;1.75;;;;;;;26.31;58.81;99160.03;5137337;28;20424;-56
2023/07/08 11:15:51;;;;;;;1.38;1.27;;;;;;;26.03;59.44;99151.69;5137797;27;20047;-57
2023/07/08 11:18:24;;;;;;;3.60;1.00;;;;;;;25.61;58.12;99149.50;5137417;28;20053;-55
2023/07/08 11:20:56;;;;;;;5.10;1.33;;;;;;;24.48;60.38;99139.72;5137713;28;20280;-50
2023/07/08 11:23:29;;;;;;;7.55;1.80;;;;;;;24.76;61.29;99151.84;5137149;28;20483;-56
2023/07/08 11:26:05;;;;;;;3.95;1.73;;;;;;;24.56;64.42;99143.81;5137409;27;20142;-52
2023/07/08 11:28:30;;;;;;;2.30;1.60;;;;;;;24.93;63.70;99149.53;5137285;28;20051;-51
2023/07/08 11:31:01;;;;;;;2.67;1.50;;;;;;;24.92;63.04;99147.19;5137058;28;20074;-49
2023/07/08 11:33:29;;;;;;;1.75;1.48;;;;;;;25.02;62.50;99151.56;5137293;28;20058;-53
2023/07/08 11:35:58;;;;;;;8.52;1.58;;;;;;;25.16;61.38;99153.84;5137167;28;20063;-58